sensor_id;sensor_type;location;lat;lon;timestamp;P1;durP1;ratioP1;P2;durP2;ratioP2
35592;SDS011;64447;52.140;5.602;2022-12-18T00:00:26;71.55;;;31.30;;
35592;SDS011;64447;52.140;5.602;2022-12-18T00:02:52;74.10;;;32.38;;
35592;SDS011;64447;52.140;5.602;2022-12-18T00:05:17;69.70;;;31.80;;
35592;SDS011;64447;52.140;5.602;2022-12-18T00:07:43;71.10;;;30.75;;
35592;SDS011;64447;52.140;5.602;2022-12-18T00:13:31;72.95;;;32.47;;
35592;SDS011;64447;52.140;5.602;2022-12-18T00:16:01;76.45;;;32.28;;
35592;SDS011;64447;52.140;5.602;2022-12-18T00:18:28;73.82;;;31.45;;
35592;SDS011;64447;52.140;5.602;2022-12-18T00:20:53;71.18;;;31.30;;
35592;SDS011;64447;52.140;5.602;2022-12-18T00:23:23;70.65;;;31.17;;
35592;SDS011;64447;52.140;5.602;2022-12-18T00:25:48;76.68;;;32.17;;
35592;SDS011;64447;52.140;5.602;2022-12-18T00:28:14;74.05;;;32.05;;
35592;SDS011;64447;52.140;5.602;2022-12-18T00:30:39;71.75;;;31.83;;
35592;SDS011;64447;52.140;5.602;2022-12-18T00:33:05;78.80;;;33.78;;
35592;SDS011;64447;52.140;5.602;2022-12-18T00:35:31;75.72;;;32.72;;
35592;SDS011;64447;52.140;5.602;2022-12-18T00:37:56;73.40;;;32.83;;
35592;SDS011;64447;52.140;5.602;2022-12-18T00:43:44;69.93;;;31.15;;
35592;SDS011;64447;52.140;5.602;2022-12-18T00:46:09;73.72;;;32.78;;
35592;SDS011;64447;52.140;5.602;2022-12-18T00:48:35;69.45;;;31.35;;
35592;SDS011;64447;52.140;5.602;2022-12-18T00:51:00;68.00;;;31.65;;
35592;SDS011;64447;52.140;5.602;2022-12-18T00:53:26;68.30;;;32.15;;
35592;SDS011;64447;52.140;5.602;2022-12-18T00:59:51;66.18;;;30.67;;
35592;SDS011;64447;52.140;5.602;2022-12-18T01:02:16;69.30;;;31.38;;
35592;SDS011;64447;52.140;5.602;2022-12-18T01:04:42;64.88;;;29.45;;
35592;SDS011;64447;52.140;5.602;2022-12-18T01:07:08;65.55;;;30.52;;
35592;SDS011;64447;52.140;5.602;2022-12-18T01:09:33;68.00;;;29.70;;
35592;SDS011;64447;52.140;5.602;2022-12-18T01:11:59;62.72;;;28.90;;
35592;SDS011;64447;52.140;5.602;2022-12-18T01:14:25;71.82;;;31.38;;
35592;SDS011;64447;52.140;5.602;2022-12-18T01:16:50;62.40;;;28.27;;
35592;SDS011;64447;52.140;5.602;2022-12-18T01:19:16;62.72;;;29.00;;
35592;SDS011;64447;52.140;5.602;2022-12-18T01:21:41;74.22;;;30.10;;
35592;SDS011;64447;52.140;5.602;2022-12-18T01:24:07;65.88;;;29.10;;
35592;SDS011;64447;52.140;5.602;2022-12-18T01:26:32;64.53;;;29.63;;
35592;SDS011;64447;52.140;5.602;2022-12-18T01:28:58;66.90;;;29.15;;
35592;SDS011;64447;52.140;5.602;2022-12-18T01:31:25;68.95;;;29.77;;
35592;SDS011;64447;52.140;5.602;2022-12-18T01:33:52;61.90;;;29.48;;
35592;SDS011;64447;52.140;5.602;2022-12-18T01:36:19;64.25;;;30.20;;
35592;SDS011;64447;52.140;5.602;2022-12-18T01:38:46;65.63;;;30.90;;
35592;SDS011;64447;52.140;5.602;2022-12-18T01:41:13;64.95;;;30.63;;
35592;SDS011;64447;52.140;5.602;2022-12-18T01:46:19;66.93;;;29.10;;
35592;SDS011;64447;52.140;5.602;2022-12-18T01:48:47;62.28;;;29.52;;
35592;SDS011;64447;52.140;5.602;2022-12-18T01:51:15;64.07;;;29.00;;
35592;SDS011;64447;52.140;5.602;2022-12-18T01:53:41;62.15;;;29.15;;
35592;SDS011;64447;52.140;5.602;2022-12-18T01:59:31;59.15;;;27.65;;
35592;SDS011;64447;52.140;5.602;2022-12-18T02:01:59;60.53;;;27.88;;
35592;SDS011;64447;52.140;5.602;2022-12-18T02:04:25;61.58;;;28.48;;
35592;SDS011;64447;52.140;5.602;2022-12-18T02:06:58;59.33;;;26.90;;
35592;SDS011;64447;52.140;5.602;2022-12-18T02:10:12;64.50;;;28.25;;
35592;SDS011;64447;52.140;5.602;2022-12-18T02:12:52;63.20;;;29.13;;
35592;SDS011;64447;52.140;5.602;2022-12-18T02:15:32;59.97;;;28.30;;
35592;SDS011;64447;52.140;5.602;2022-12-18T02:18:07;57.45;;;27.17;;
35592;SDS011;64447;52.140;5.602;2022-12-18T02:20:49;59.97;;;27.45;;
35592;SDS011;64447;52.140;5.602;2022-12-18T02:23:35;61.53;;;27.90;;
35592;SDS011;64447;52.140;5.602;2022-12-18T02:28:57;59.10;;;27.20;;
35592;SDS011;64447;52.140;5.602;2022-12-18T02:31:29;56.13;;;27.52;;
35592;SDS011;64447;52.140;5.602;2022-12-18T02:34:02;59.55;;;27.33;;
35592;SDS011;64447;52.140;5.602;2022-12-18T02:36:29;54.28;;;26.75;;
35592;SDS011;64447;52.140;5.602;2022-12-18T02:38:57;59.97;;;28.10;;
35592;SDS011;64447;52.140;5.602;2022-12-18T02:41:24;61.90;;;28.15;;
35592;SDS011;64447;52.140;5.602;2022-12-18T02:44:10;54.42;;;26.88;;
35592;SDS011;64447;52.140;5.602;2022-12-18T02:46:40;55.90;;;26.92;;
35592;SDS011;64447;52.140;5.602;2022-12-18T03:03:37;54.53;;;28.15;;
35592;SDS011;64447;52.140;5.602;2022-12-18T03:09:02;56.05;;;26.63;;
35592;SDS011;64447;52.140;5.602;2022-12-18T03:15:04;52.08;;;25.95;;
35592;SDS011;64447;52.140;5.602;2022-12-18T03:17:36;49.45;;;25.58;;
35592;SDS011;64447;52.140;5.602;2022-12-18T03:20:07;51.65;;;25.02;;
35592;SDS011;64447;52.140;5.602;2022-12-18T03:22:37;49.80;;;25.23;;
35592;SDS011;64447;52.140;5.602;2022-12-18T03:25:06;51.45;;;26.30;;
35592;SDS011;64447;52.140;5.602;2022-12-18T03:27:35;47.50;;;24.83;;
35592;SDS011;64447;52.140;5.602;2022-12-18T03:30:07;47.45;;;23.52;;
35592;SDS011;64447;52.140;5.602;2022-12-18T03:32:55;46.83;;;25.13;;
35592;SDS011;64447;52.140;5.602;2022-12-18T03:35:28;48.85;;;24.70;;
35592;SDS011;64447;52.140;5.602;2022-12-18T03:37:58;48.28;;;23.98;;
35592;SDS011;64447;52.140;5.602;2022-12-18T03:40:25;48.33;;;22.85;;
35592;SDS011;64447;52.140;5.602;2022-12-18T03:43:19;44.75;;;23.30;;
35592;SDS011;64447;52.140;5.602;2022-12-18T03:46:12;47.70;;;23.45;;
35592;SDS011;64447;52.140;5.602;2022-12-18T03:49:19;47.42;;;23.17;;
35592;SDS011;64447;52.140;5.602;2022-12-18T04:01:16;48.38;;;24.58;;
35592;SDS011;64447;52.140;5.602;2022-12-18T04:03:42;45.65;;;24.27;;
35592;SDS011;64447;52.140;5.602;2022-12-18T04:06:11;52.58;;;24.77;;
35592;SDS011;64447;52.140;5.602;2022-12-18T04:08:38;49.78;;;24.20;;
35592;SDS011;64447;52.140;5.602;2022-12-18T04:14:26;44.65;;;22.80;;
35592;SDS011;64447;52.140;5.602;2022-12-18T04:16:52;44.17;;;23.30;;
35592;SDS011;64447;52.140;5.602;2022-12-18T04:19:17;46.20;;;23.10;;
35592;SDS011;64447;52.140;5.602;2022-12-18T04:21:43;46.67;;;22.52;;
35592;SDS011;64447;52.140;5.602;2022-12-18T04:24:09;46.75;;;23.17;;
35592;SDS011;64447;52.140;5.602;2022-12-18T04:29:56;42.05;;;21.20;;
35592;SDS011;64447;52.140;5.602;2022-12-18T04:32:22;41.15;;;22.10;;
35592;SDS011;64447;52.140;5.602;2022-12-18T04:34:47;43.72;;;22.55;;
35592;SDS011;64447;52.140;5.602;2022-12-18T04:37:13;39.78;;;20.33;;
35592;SDS011;64447;52.140;5.602;2022-12-18T04:39:39;41.85;;;21.13;;
35592;SDS011;64447;52.140;5.602;2022-12-18T04:45:26;43.15;;;21.73;;
35592;SDS011;64447;52.140;5.602;2022-12-18T04:47:52;38.45;;;21.00;;
35592;SDS011;64447;52.140;5.602;2022-12-18T04:50:18;41.40;;;21.08;;
35592;SDS011;64447;52.140;5.602;2022-12-18T04:52:43;38.53;;;19.88;;
35592;SDS011;64447;52.140;5.602;2022-12-18T04:55:09;40.33;;;21.60;;
35592;SDS011;64447;52.140;5.602;2022-12-18T04:57:34;37.38;;;21.20;;
35592;SDS011;64447;52.140;5.602;2022-12-18T05:00:00;39.88;;;20.60;;
35592;SDS011;64447;52.140;5.602;2022-12-18T05:02:26;36.30;;;19.67;;
35592;SDS011;64447;52.140;5.602;2022-12-18T05:04:51;32.65;;;19.25;;
35592;SDS011;64447;52.140;5.602;2022-12-18T05:07:17;38.75;;;19.27;;
35592;SDS011;64447;52.140;5.602;2022-12-18T05:09:43;35.30;;;19.20;;
35592;SDS011;64447;52.140;5.602;2022-12-18T05:15:31;36.90;;;20.00;;
35592;SDS011;64447;52.140;5.602;2022-12-18T05:17:57;37.15;;;19.52;;
35592;SDS011;64447;52.140;5.602;2022-12-18T05:20:24;37.80;;;20.15;;
35592;SDS011;64447;52.140;5.602;2022-12-18T05:22:50;36.78;;;19.00;;
35592;SDS011;64447;52.140;5.602;2022-12-18T05:25:17;39.28;;;19.38;;
35592;SDS011;64447;52.140;5.602;2022-12-18T05:27:42;34.72;;;19.75;;
35592;SDS011;64447;52.140;5.602;2022-12-18T05:30:08;34.00;;;18.70;;
35592;SDS011;64447;52.140;5.602;2022-12-18T05:32:35;37.80;;;20.92;;
35592;SDS011;64447;52.140;5.602;2022-12-18T05:35:01;36.08;;;19.35;;
35592;SDS011;64447;52.140;5.602;2022-12-18T05:37:27;38.70;;;19.35;;
35592;SDS011;64447;52.140;5.602;2022-12-18T05:39:53;31.45;;;18.33;;
35592;SDS011;64447;52.140;5.602;2022-12-18T05:45:40;31.98;;;18.40;;
35592;SDS011;64447;52.140;5.602;2022-12-18T05:48:06;32.67;;;17.92;;
35592;SDS011;64447;52.140;5.602;2022-12-18T05:50:33;29.55;;;16.60;;
35592;SDS011;64447;52.140;5.602;2022-12-18T05:53:00;29.27;;;16.80;;
35592;SDS011;64447;52.140;5.602;2022-12-18T05:55:27;28.80;;;15.68;;
35592;SDS011;64447;52.140;5.602;2022-12-18T05:57:52;30.65;;;15.93;;
35592;SDS011;64447;52.140;5.602;2022-12-18T06:00:18;27.88;;;15.57;;
35592;SDS011;64447;52.140;5.602;2022-12-18T06:02:46;30.25;;;16.08;;
35592;SDS011;64447;52.140;5.602;2022-12-18T06:05:12;27.85;;;15.90;;
35592;SDS011;64447;52.140;5.602;2022-12-18T06:07:37;26.42;;;15.35;;
35592;SDS011;64447;52.140;5.602;2022-12-18T06:10:03;29.02;;;15.25;;
35592;SDS011;64447;52.140;5.602;2022-12-18T06:15:51;26.58;;;16.08;;
35592;SDS011;64447;52.140;5.602;2022-12-18T06:18:17;29.00;;;16.38;;
35592;SDS011;64447;52.140;5.602;2022-12-18T06:20:42;28.17;;;15.25;;
35592;SDS011;64447;52.140;5.602;2022-12-18T06:23:08;32.03;;;17.05;;
35592;SDS011;64447;52.140;5.602;2022-12-18T06:25:36;26.65;;;16.77;;
35592;SDS011;64447;52.140;5.602;2022-12-18T06:28:03;29.17;;;15.88;;
35592;SDS011;64447;52.140;5.602;2022-12-18T06:30:28;26.00;;;14.98;;
35592;SDS011;64447;52.140;5.602;2022-12-18T06:32:54;25.83;;;15.25;;
35592;SDS011;64447;52.140;5.602;2022-12-18T06:35:19;29.98;;;16.15;;
35592;SDS011;64447;52.140;5.602;2022-12-18T06:37:45;31.08;;;16.08;;
35592;SDS011;64447;52.140;5.602;2022-12-18T06:40:11;28.48;;;16.27;;
35592;SDS011;64447;52.140;5.602;2022-12-18T06:46:01;28.08;;;17.08;;
35592;SDS011;64447;52.140;5.602;2022-12-18T06:48:28;26.13;;;15.80;;
35592;SDS011;64447;52.140;5.602;2022-12-18T06:50:54;30.33;;;15.32;;
35592;SDS011;64447;52.140;5.602;2022-12-18T06:53:20;27.70;;;15.23;;
35592;SDS011;64447;52.140;5.602;2022-12-18T06:55:45;31.35;;;16.08;;
35592;SDS011;64447;52.140;5.602;2022-12-18T06:58:11;29.13;;;16.77;;
35592;SDS011;64447;52.140;5.602;2022-12-18T07:00:36;31.13;;;16.63;;
35592;SDS011;64447;52.140;5.602;2022-12-18T07:03:02;30.17;;;17.45;;
35592;SDS011;64447;52.140;5.602;2022-12-18T07:05:28;35.70;;;17.25;;
35592;SDS011;64447;52.140;5.602;2022-12-18T07:07:53;34.40;;;17.98;;
35592;SDS011;64447;52.140;5.602;2022-12-18T07:10:19;32.38;;;16.00;;
35592;SDS011;64447;52.140;5.602;2022-12-18T07:16:07;26.85;;;15.88;;
35592;SDS011;64447;52.140;5.602;2022-12-18T07:18:35;28.30;;;16.17;;
35592;SDS011;64447;52.140;5.602;2022-12-18T07:21:04;31.55;;;16.58;;
35592;SDS011;64447;52.140;5.602;2022-12-18T07:23:31;27.90;;;15.65;;
35592;SDS011;64447;52.140;5.602;2022-12-18T07:26:04;29.52;;;16.70;;
35592;SDS011;64447;52.140;5.602;2022-12-18T07:28:32;28.70;;;15.57;;
35592;SDS011;64447;52.140;5.602;2022-12-18T07:30:58;27.38;;;15.80;;
35592;SDS011;64447;52.140;5.602;2022-12-18T07:33:38;28.10;;;16.65;;
35592;SDS011;64447;52.140;5.602;2022-12-18T07:36:04;28.95;;;16.77;;
35592;SDS011;64447;52.140;5.602;2022-12-18T07:38:32;29.13;;;16.27;;
35592;SDS011;64447;52.140;5.602;2022-12-18T07:41:02;28.77;;;17.13;;
35592;SDS011;64447;52.140;5.602;2022-12-18T07:43:28;26.38;;;16.20;;
35592;SDS011;64447;52.140;5.602;2022-12-18T07:45:54;28.77;;;15.88;;
35592;SDS011;64447;52.140;5.602;2022-12-18T07:48:21;25.80;;;16.55;;
35592;SDS011;64447;52.140;5.602;2022-12-18T07:50:47;29.45;;;17.70;;
35592;SDS011;64447;52.140;5.602;2022-12-18T07:53:13;31.02;;;16.52;;
35592;SDS011;64447;52.140;5.602;2022-12-18T07:55:39;29.25;;;18.13;;
35592;SDS011;64447;52.140;5.602;2022-12-18T08:01:10;35.05;;;18.38;;
35592;SDS011;64447;52.140;5.602;2022-12-18T08:03:37;32.53;;;17.50;;
35592;SDS011;64447;52.140;5.602;2022-12-18T08:06:03;27.58;;;17.50;;
35592;SDS011;64447;52.140;5.602;2022-12-18T08:08:30;29.35;;;16.83;;
35592;SDS011;64447;52.140;5.602;2022-12-18T08:10:57;33.03;;;18.10;;
35592;SDS011;64447;52.140;5.602;2022-12-18T08:13:23;26.08;;;15.60;;
35592;SDS011;64447;52.140;5.602;2022-12-18T08:15:56;31.13;;;16.60;;
35592;SDS011;64447;52.140;5.602;2022-12-18T08:18:23;29.88;;;16.95;;
35592;SDS011;64447;52.140;5.602;2022-12-18T08:20:49;31.30;;;16.83;;
35592;SDS011;64447;52.140;5.602;2022-12-18T08:23:15;33.03;;;17.58;;
35592;SDS011;64447;52.140;5.602;2022-12-18T08:25:41;34.70;;;18.58;;
35592;SDS011;64447;52.140;5.602;2022-12-18T08:31:10;43.22;;;18.10;;
35592;SDS011;64447;52.140;5.602;2022-12-18T08:33:37;28.42;;;16.15;;
35592;SDS011;64447;52.140;5.602;2022-12-18T08:36:03;26.58;;;15.05;;
35592;SDS011;64447;52.140;5.602;2022-12-18T08:38:30;22.38;;;14.10;;
35592;SDS011;64447;52.140;5.602;2022-12-18T08:41:16;24.83;;;14.80;;
35592;SDS011;64447;52.140;5.602;2022-12-18T08:47:07;22.52;;;14.23;;
35592;SDS011;64447;52.140;5.602;2022-12-18T08:49:33;23.77;;;14.52;;
35592;SDS011;64447;52.140;5.602;2022-12-18T08:52:00;24.73;;;14.13;;
35592;SDS011;64447;52.140;5.602;2022-12-18T08:54:28;23.30;;;13.60;;
35592;SDS011;64447;52.140;5.602;2022-12-18T08:56:55;22.40;;;13.35;;
35592;SDS011;64447;52.140;5.602;2022-12-18T08:59:20;26.00;;;13.73;;
35592;SDS011;64447;52.140;5.602;2022-12-18T09:01:48;25.55;;;14.77;;
35592;SDS011;64447;52.140;5.602;2022-12-18T09:04:14;26.13;;;13.98;;
35592;SDS011;64447;52.140;5.602;2022-12-18T09:06:40;22.48;;;13.80;;
35592;SDS011;64447;52.140;5.602;2022-12-18T09:09:06;23.80;;;14.48;;
35592;SDS011;64447;52.140;5.602;2022-12-18T09:11:32;23.23;;;12.93;;
35592;SDS011;64447;52.140;5.602;2022-12-18T09:13:59;24.17;;;14.45;;
35592;SDS011;64447;52.140;5.602;2022-12-18T09:16:26;24.60;;;13.63;;
35592;SDS011;64447;52.140;5.602;2022-12-18T09:18:53;25.05;;;12.98;;
35592;SDS011;64447;52.140;5.602;2022-12-18T09:21:24;22.40;;;12.52;;
35592;SDS011;64447;52.140;5.602;2022-12-18T09:23:50;20.88;;;12.05;;
35592;SDS011;64447;52.140;5.602;2022-12-18T09:26:16;24.30;;;13.38;;
35592;SDS011;64447;52.140;5.602;2022-12-18T09:31:46;27.45;;;15.13;;
35592;SDS011;64447;52.140;5.602;2022-12-18T09:34:12;23.42;;;13.35;;
35592;SDS011;64447;52.140;5.602;2022-12-18T09:36:38;21.85;;;12.98;;
35592;SDS011;64447;52.140;5.602;2022-12-18T09:39:04;25.13;;;13.07;;
35592;SDS011;64447;52.140;5.602;2022-12-18T09:52:44;21.35;;;12.40;;
35592;SDS011;64447;52.140;5.602;2022-12-18T09:55:28;23.77;;;14.20;;
35592;SDS011;64447;52.140;5.602;2022-12-18T09:57:57;26.13;;;14.95;;
35592;SDS011;64447;52.140;5.602;2022-12-18T10:00:26;22.42;;;13.52;;
35592;SDS011;64447;52.140;5.602;2022-12-18T10:02:53;26.15;;;15.07;;
35592;SDS011;64447;52.140;5.602;2022-12-18T10:10:27;22.88;;;14.75;;
35592;SDS011;64447;52.140;5.602;2022-12-18T10:13:14;21.27;;;13.00;;
35592;SDS011;64447;52.140;5.602;2022-12-18T10:18:38;19.60;;;12.88;;
35592;SDS011;64447;52.140;5.602;2022-12-18T10:21:11;21.73;;;13.13;;
35592;SDS011;64447;52.140;5.602;2022-12-18T10:26:06;19.52;;;11.73;;
35592;SDS011;64447;52.140;5.602;2022-12-18T10:28:33;27.50;;;14.57;;
35592;SDS011;64447;52.140;5.602;2022-12-18T10:30:59;22.13;;;12.15;;
35592;SDS011;64447;52.140;5.602;2022-12-18T10:33:28;26.67;;;15.85;;
35592;SDS011;64447;52.140;5.602;2022-12-18T10:35:54;23.40;;;13.63;;
35592;SDS011;64447;52.140;5.602;2022-12-18T10:38:22;22.67;;;13.02;;
35592;SDS011;64447;52.140;5.602;2022-12-18T10:41:02;20.55;;;11.75;;
35592;SDS011;64447;52.140;5.602;2022-12-18T10:43:29;20.15;;;11.48;;
35592;SDS011;64447;52.140;5.602;2022-12-18T10:48:34;21.77;;;11.52;;
35592;SDS011;64447;52.140;5.602;2022-12-18T10:51:01;19.45;;;11.70;;
35592;SDS011;64447;52.140;5.602;2022-12-18T10:53:31;20.33;;;11.38;;
35592;SDS011;64447;52.140;5.602;2022-12-18T10:55:58;18.90;;;10.82;;
35592;SDS011;64447;52.140;5.602;2022-12-18T11:03:39;18.25;;;10.98;;
35592;SDS011;64447;52.140;5.602;2022-12-18T11:06:12;22.20;;;11.57;;
35592;SDS011;64447;52.140;5.602;2022-12-18T11:08:40;18.80;;;11.35;;
35592;SDS011;64447;52.140;5.602;2022-12-18T11:11:21;18.08;;;11.18;;
35592;SDS011;64447;52.140;5.602;2022-12-18T11:14:15;20.55;;;10.82;;
35592;SDS011;64447;52.140;5.602;2022-12-18T11:16:51;20.90;;;11.38;;
35592;SDS011;64447;52.140;5.602;2022-12-18T11:19:28;20.27;;;11.07;;
35592;SDS011;64447;52.140;5.602;2022-12-18T11:22:27;16.05;;;9.75;;
35592;SDS011;64447;52.140;5.602;2022-12-18T11:24:54;19.70;;;11.27;;
35592;SDS011;64447;52.140;5.602;2022-12-18T11:30:44;18.77;;;11.05;;
35592;SDS011;64447;52.140;5.602;2022-12-18T11:33:14;20.70;;;11.82;;
35592;SDS011;64447;52.140;5.602;2022-12-18T11:38:32;20.55;;;10.93;;
35592;SDS011;64447;52.140;5.602;2022-12-18T11:41:05;18.77;;;11.68;;
35592;SDS011;64447;52.140;5.602;2022-12-18T11:47:43;19.10;;;11.98;;
35592;SDS011;64447;52.140;5.602;2022-12-18T11:50:25;22.35;;;13.15;;
35592;SDS011;64447;52.140;5.602;2022-12-18T11:53:12;19.77;;;11.82;;
35592;SDS011;64447;52.140;5.602;2022-12-18T11:55:47;19.33;;;12.10;;
35592;SDS011;64447;52.140;5.602;2022-12-18T12:01:27;23.73;;;14.45;;
35592;SDS011;64447;52.140;5.602;2022-12-18T12:18:41;20.80;;;11.63;;
35592;SDS011;64447;52.140;5.602;2022-12-18T12:23:46;19.67;;;12.65;;
35592;SDS011;64447;52.140;5.602;2022-12-18T12:35:21;20.83;;;11.90;;
35592;SDS011;64447;52.140;5.602;2022-12-18T12:40:36;21.83;;;11.98;;
35592;SDS011;64447;52.140;5.602;2022-12-18T12:43:12;22.85;;;12.77;;
35592;SDS011;64447;52.140;5.602;2022-12-18T12:45:59;20.27;;;13.10;;
35592;SDS011;64447;52.140;5.602;2022-12-18T12:48:35;19.98;;;11.23;;
35592;SDS011;64447;52.140;5.602;2022-12-18T12:51:25;22.10;;;12.65;;
35592;SDS011;64447;52.140;5.602;2022-12-18T12:53:54;22.92;;;14.13;;
35592;SDS011;64447;52.140;5.602;2022-12-18T12:56:21;24.63;;;14.00;;
35592;SDS011;64447;52.140;5.602;2022-12-18T13:01:26;24.80;;;14.48;;
35592;SDS011;64447;52.140;5.602;2022-12-18T13:06:50;26.90;;;17.02;;
35592;SDS011;64447;52.140;5.602;2022-12-18T13:09:24;28.90;;;18.25;;
35592;SDS011;64447;52.140;5.602;2022-12-18T13:11:49;24.30;;;14.88;;
35592;SDS011;64447;52.140;5.602;2022-12-18T13:14:37;23.27;;;13.95;;
35592;SDS011;64447;52.140;5.602;2022-12-18T13:17:14;22.55;;;13.25;;
35592;SDS011;64447;52.140;5.602;2022-12-18T13:19:49;22.70;;;13.05;;
35592;SDS011;64447;52.140;5.602;2022-12-18T13:22:20;20.02;;;12.23;;
35592;SDS011;64447;52.140;5.602;2022-12-18T13:24:47;20.77;;;12.52;;
35592;SDS011;64447;52.140;5.602;2022-12-18T13:35:40;25.88;;;14.23;;
35592;SDS011;64447;52.140;5.602;2022-12-18T13:40:57;22.90;;;13.38;;
35592;SDS011;64447;52.140;5.602;2022-12-18T13:46:46;20.73;;;11.70;;
35592;SDS011;64447;52.140;5.602;2022-12-18T13:51:39;22.50;;;13.00;;
35592;SDS011;64447;52.140;5.602;2022-12-18T13:54:17;19.55;;;12.52;;
35592;SDS011;64447;52.140;5.602;2022-12-18T13:56:44;23.27;;;13.05;;
35592;SDS011;64447;52.140;5.602;2022-12-18T14:02:33;20.75;;;12.95;;
35592;SDS011;64447;52.140;5.602;2022-12-18T14:04:59;21.73;;;12.77;;
35592;SDS011;64447;52.140;5.602;2022-12-18T14:07:25;20.17;;;12.43;;
35592;SDS011;64447;52.140;5.602;2022-12-18T14:09:54;21.50;;;12.35;;
35592;SDS011;64447;52.140;5.602;2022-12-18T14:18:57;22.90;;;12.73;;
35592;SDS011;64447;52.140;5.602;2022-12-18T14:21:26;22.60;;;13.13;;
35592;SDS011;64447;52.140;5.602;2022-12-18T14:24:12;23.88;;;13.40;;
35592;SDS011;64447;52.140;5.602;2022-12-18T14:26:46;25.60;;;14.07;;
35592;SDS011;64447;52.140;5.602;2022-12-18T14:32:35;26.83;;;16.05;;
35592;SDS011;64447;52.140;5.602;2022-12-18T14:35:11;33.08;;;18.27;;
35592;SDS011;64447;52.140;5.602;2022-12-18T14:37:38;39.03;;;21.27;;
35592;SDS011;64447;52.140;5.602;2022-12-18T14:40:04;37.97;;;20.58;;
35592;SDS011;64447;52.140;5.602;2022-12-18T14:42:30;38.47;;;21.63;;
35592;SDS011;64447;52.140;5.602;2022-12-18T14:48:19;33.50;;;18.73;;
35592;SDS011;64447;52.140;5.602;2022-12-18T14:50:57;40.25;;;20.92;;
35592;SDS011;64447;52.140;5.602;2022-12-18T14:56:11;25.73;;;14.18;;
35592;SDS011;64447;52.140;5.602;2022-12-18T14:58:48;22.60;;;13.60;;
35592;SDS011;64447;52.140;5.602;2022-12-18T15:01:28;22.88;;;13.82;;
35592;SDS011;64447;52.140;5.602;2022-12-18T15:03:57;26.35;;;13.82;;
35592;SDS011;64447;52.140;5.602;2022-12-18T15:06:28;26.38;;;14.57;;
35592;SDS011;64447;52.140;5.602;2022-12-18T15:08:59;24.40;;;13.35;;
35592;SDS011;64447;52.140;5.602;2022-12-18T15:11:28;24.95;;;13.20;;
35592;SDS011;64447;52.140;5.602;2022-12-18T15:13:58;24.40;;;13.27;;
35592;SDS011;64447;52.140;5.602;2022-12-18T15:16:25;24.98;;;13.63;;
35592;SDS011;64447;52.140;5.602;2022-12-18T15:18:51;21.35;;;13.75;;
35592;SDS011;64447;52.140;5.602;2022-12-18T15:21:18;25.27;;;12.77;;
35592;SDS011;64447;52.140;5.602;2022-12-18T15:23:51;23.63;;;13.63;;
35592;SDS011;64447;52.140;5.602;2022-12-18T15:26:18;23.27;;;13.07;;
35592;SDS011;64447;52.140;5.602;2022-12-18T15:28:47;22.38;;;13.43;;
35592;SDS011;64447;52.140;5.602;2022-12-18T15:31:24;24.45;;;13.57;;
35592;SDS011;64447;52.140;5.602;2022-12-18T15:34:01;29.70;;;17.45;;
35592;SDS011;64447;52.140;5.602;2022-12-18T15:36:28;33.75;;;18.20;;
35592;SDS011;64447;52.140;5.602;2022-12-18T15:39:01;31.75;;;19.42;;
35592;SDS011;64447;52.140;5.602;2022-12-18T15:41:27;26.48;;;17.08;;
35592;SDS011;64447;52.140;5.602;2022-12-18T15:43:55;22.65;;;13.95;;
35592;SDS011;64447;52.140;5.602;2022-12-18T15:46:22;22.02;;;13.77;;
35592;SDS011;64447;52.140;5.602;2022-12-18T15:48:50;22.83;;;13.20;;
35592;SDS011;64447;52.140;5.602;2022-12-18T15:51:24;27.60;;;15.80;;
35592;SDS011;64447;52.140;5.602;2022-12-18T15:53:55;26.10;;;16.27;;
35592;SDS011;64447;52.140;5.602;2022-12-18T15:56:23;28.67;;;15.77;;
35592;SDS011;64447;52.140;5.602;2022-12-18T15:59:11;31.95;;;18.02;;
35592;SDS011;64447;52.140;5.602;2022-12-18T16:01:39;25.20;;;15.68;;
35592;SDS011;64447;52.140;5.602;2022-12-18T16:04:06;33.45;;;17.85;;
35592;SDS011;64447;52.140;5.602;2022-12-18T16:06:31;38.28;;;24.05;;
35592;SDS011;64447;52.140;5.602;2022-12-18T16:08:57;28.52;;;15.85;;
35592;SDS011;64447;52.140;5.602;2022-12-18T16:11:24;27.15;;;16.42;;
35592;SDS011;64447;52.140;5.602;2022-12-18T16:14:20;26.90;;;15.85;;
35592;SDS011;64447;52.140;5.602;2022-12-18T16:16:50;22.63;;;14.07;;
35592;SDS011;64447;52.140;5.602;2022-12-18T16:19:17;25.50;;;14.80;;
35592;SDS011;64447;52.140;5.602;2022-12-18T16:21:43;29.13;;;15.50;;
35592;SDS011;64447;52.140;5.602;2022-12-18T16:24:12;27.23;;;15.70;;
35592;SDS011;64447;52.140;5.602;2022-12-18T16:27:01;27.33;;;14.93;;
35592;SDS011;64447;52.140;5.602;2022-12-18T16:29:27;26.45;;;17.10;;
35592;SDS011;64447;52.140;5.602;2022-12-18T16:31:54;29.45;;;17.55;;
35592;SDS011;64447;52.140;5.602;2022-12-18T16:34:21;25.38;;;14.90;;
35592;SDS011;64447;52.140;5.602;2022-12-18T16:36:50;28.48;;;17.02;;
35592;SDS011;64447;52.140;5.602;2022-12-18T16:39:16;29.88;;;16.85;;
35592;SDS011;64447;52.140;5.602;2022-12-18T16:41:42;29.75;;;16.42;;
35592;SDS011;64447;52.140;5.602;2022-12-18T16:44:07;24.05;;;14.30;;
35592;SDS011;64447;52.140;5.602;2022-12-18T16:46:34;25.05;;;15.23;;
35592;SDS011;64447;52.140;5.602;2022-12-18T16:48:59;26.98;;;16.20;;
35592;SDS011;64447;52.140;5.602;2022-12-18T16:51:25;32.33;;;16.20;;
35592;SDS011;64447;52.140;5.602;2022-12-18T16:54:02;24.83;;;15.82;;
35592;SDS011;64447;52.140;5.602;2022-12-18T16:56:27;33.53;;;16.83;;
35592;SDS011;64447;52.140;5.602;2022-12-18T16:58:57;29.75;;;16.67;;
35592;SDS011;64447;52.140;5.602;2022-12-18T17:01:25;31.73;;;17.15;;
35592;SDS011;64447;52.140;5.602;2022-12-18T17:03:52;28.02;;;16.23;;
35592;SDS011;64447;52.140;5.602;2022-12-18T17:06:19;28.88;;;15.75;;
35592;SDS011;64447;52.140;5.602;2022-12-18T17:08:47;27.15;;;16.30;;
35592;SDS011;64447;52.140;5.602;2022-12-18T17:11:18;32.45;;;18.08;;
35592;SDS011;64447;52.140;5.602;2022-12-18T17:13:44;25.58;;;15.82;;
35592;SDS011;64447;52.140;5.602;2022-12-18T17:19:31;27.08;;;15.57;;
35592;SDS011;64447;52.140;5.602;2022-12-18T17:21:57;33.58;;;16.95;;
35592;SDS011;64447;52.140;5.602;2022-12-18T17:24:23;31.15;;;17.63;;
35592;SDS011;64447;52.140;5.602;2022-12-18T17:26:48;34.10;;;18.98;;
35592;SDS011;64447;52.140;5.602;2022-12-18T17:29:17;27.45;;;17.08;;
35592;SDS011;64447;52.140;5.602;2022-12-18T17:31:44;31.95;;;17.45;;
35592;SDS011;64447;52.140;5.602;2022-12-18T17:34:10;30.73;;;17.50;;
35592;SDS011;64447;52.140;5.602;2022-12-18T17:36:36;28.15;;;18.20;;
35592;SDS011;64447;52.140;5.602;2022-12-18T17:39:02;30.40;;;17.67;;
35592;SDS011;64447;52.140;5.602;2022-12-18T17:41:29;30.13;;;18.10;;
35592;SDS011;64447;52.140;5.602;2022-12-18T17:43:57;31.40;;;18.55;;
35592;SDS011;64447;52.140;5.602;2022-12-18T17:49:49;31.50;;;18.20;;
35592;SDS011;64447;52.140;5.602;2022-12-18T17:52:15;32.70;;;17.98;;
35592;SDS011;64447;52.140;5.602;2022-12-18T17:54:41;35.30;;;18.48;;
35592;SDS011;64447;52.140;5.602;2022-12-18T17:57:08;36.97;;;20.75;;
35592;SDS011;64447;52.140;5.602;2022-12-18T17:59:34;35.05;;;18.65;;
35592;SDS011;64447;52.140;5.602;2022-12-18T18:01:59;35.50;;;18.33;;